sensor_id;sensor_type;location;lat;lon;timestamp;pressure;altitude;pressure_sealevel;temperature;humidity
6349;BME280;3207;42.648;23.406;2022-12-18T00:00:08;101474.31;;;4.78;93.48
6349;BME280;3207;42.648;23.406;2022-12-18T00:02:35;101482.06;;;4.79;93.04
6349;BME280;3207;42.648;23.406;2022-12-18T00:05:02;101478.72;;;4.76;92.79
6349;BME280;3207;42.648;23.406;2022-12-18T00:07:29;101489.75;;;4.83;93.01
6349;BME280;3207;42.648;23.406;2022-12-18T00:09:57;101492.31;;;4.84;93.21
6349;BME280;3207;42.648;23.406;2022-12-18T00:12:24;101500.97;;;4.83;93.00
6349;BME280;3207;42.648;23.406;2022-12-18T00:14:51;101499.19;;;4.85;93.06
6349;BME280;3207;42.648;23.406;2022-12-18T00:17:18;101502.59;;;4.87;92.90
6349;BME280;3207;42.648;23.406;2022-12-18T00:19:44;101507.03;;;4.82;91.97
6349;BME280;3207;42.648;23.406;2022-12-18T00:22:11;101507.09;;;4.79;91.40
6349;BME280;3207;42.648;23.406;2022-12-18T00:24:38;101514.06;;;4.77;90.82
6349;BME280;3207;42.648;23.406;2022-12-18T00:27:06;101510.72;;;4.73;90.31
6349;BME280;3207;42.648;23.406;2022-12-18T00:29:33;101521.09;;;4.72;90.40
6349;BME280;3207;42.648;23.406;2022-12-18T00:32:00;101521.13;;;4.70;89.76
6349;BME280;3207;42.648;23.406;2022-12-18T00:34:27;101524.75;;;4.65;89.50
6349;BME280;3207;42.648;23.406;2022-12-18T00:36:54;101536.19;;;4.55;88.61
6349;BME280;3207;42.648;23.406;2022-12-18T00:39:20;101532.13;;;4.45;87.65
6349;BME280;3207;42.648;23.406;2022-12-18T00:41:47;101527.88;;;4.40;87.39
6349;BME280;3207;42.648;23.406;2022-12-18T00:44:32;101536.69;;;4.33;86.73
6349;BME280;3207;42.648;23.406;2022-12-18T00:46:59;101530.81;;;4.25;86.13
6349;BME280;3207;42.648;23.406;2022-12-18T00:49:26;101513.94;;;4.08;85.55
6349;BME280;3207;42.648;23.406;2022-12-18T00:51:58;101532.03;;;4.09;84.44
6349;BME280;3207;42.648;23.406;2022-12-18T00:54:25;101536.41;;;4.05;84.57
6349;BME280;3207;42.648;23.406;2022-12-18T00:56:51;101531.34;;;4.01;84.31
6349;BME280;3207;42.648;23.406;2022-12-18T00:59:20;101539.34;;;3.90;83.60
6349;BME280;3207;42.648;23.406;2022-12-18T01:01:48;101548.06;;;3.85;83.06
6349;BME280;3207;42.648;23.406;2022-12-18T01:04:15;101538.72;;;3.78;82.39
6349;BME280;3207;42.648;23.406;2022-12-18T01:06:42;101542.16;;;3.80;81.95
6349;BME280;3207;42.648;23.406;2022-12-18T01:09:09;101550.09;;;3.71;81.80
6349;BME280;3207;42.648;23.406;2022-12-18T01:11:36;101550.22;;;3.63;81.39
6349;BME280;3207;42.648;23.406;2022-12-18T01:14:03;101550.16;;;3.67;80.95
6349;BME280;3207;42.648;23.406;2022-12-18T01:16:30;101555.22;;;3.72;80.65
6349;BME280;3207;42.648;23.406;2022-12-18T01:18:58;101557.88;;;3.69;79.42
6349;BME280;3207;42.648;23.406;2022-12-18T01:21:25;101552.78;;;3.64;78.59
6349;BME280;3207;42.648;23.406;2022-12-18T01:23:55;101557.22;;;3.58;78.78
6349;BME280;3207;42.648;23.406;2022-12-18T01:26:23;101559.78;;;3.59;78.84
6349;BME280;3207;42.648;23.406;2022-12-18T01:28:51;101570.81;;;3.69;78.50
6349;BME280;3207;42.648;23.406;2022-12-18T01:31:19;101566.63;;;3.60;78.63
6349;BME280;3207;42.648;23.406;2022-12-18T01:33:50;101562.31;;;3.61;78.54
6349;BME280;3207;42.648;23.406;2022-12-18T01:36:21;101569.19;;;3.62;78.45
6349;BME280;3207;42.648;23.406;2022-12-18T01:38:49;101573.63;;;3.55;78.68
6349;BME280;3207;42.648;23.406;2022-12-18T01:41:19;101569.31;;;3.57;78.83
6349;BME280;3207;42.648;23.406;2022-12-18T01:43:49;101579.16;;;3.37;78.87
6349;BME280;3207;42.648;23.406;2022-12-18T01:46:18;101574.75;;;3.41;79.10
6349;BME280;3207;42.648;23.406;2022-12-18T01:48:48;101580.63;;;3.50;79.02
6349;BME280;3207;42.648;23.406;2022-12-18T01:51:16;101577.28;;;3.45;79.22
6349;BME280;3207;42.648;23.406;2022-12-18T01:53:46;101575.63;;;3.41;79.89
6349;BME280;3207;42.648;23.406;2022-12-18T01:56:15;101585.78;;;3.50;79.80
6349;BME280;3207;42.648;23.406;2022-12-18T01:58:48;101585.69;;;3.56;79.66
6349;BME280;3207;42.648;23.406;2022-12-18T02:01:18;101589.16;;;3.55;79.52
6349;BME280;3207;42.648;23.406;2022-12-18T02:03:46;101592.66;;;3.51;79.37
6349;BME280;3207;42.648;23.406;2022-12-18T02:06:16;101591.03;;;3.47;79.38
6349;BME280;3207;42.648;23.406;2022-12-18T02:08:58;101595.19;;;3.54;78.71
6349;BME280;3207;42.648;23.406;2022-12-18T02:11:37;101601.38;;;3.46;78.41
6349;BME280;3207;42.648;23.406;2022-12-18T02:14:14;101602.53;;;3.29;78.40
6349;BME280;3207;42.648;23.406;2022-12-18T02:16:47;101617.25;;;3.26;78.72
6349;BME280;3207;42.648;23.406;2022-12-18T02:19:39;101616.22;;;3.36;78.64
6349;BME280;3207;42.648;23.406;2022-12-18T02:22:26;101613.66;;;3.33;78.30
6349;BME280;3207;42.648;23.406;2022-12-18T02:25:01;101633.50;;;3.33;78.11
6349;BME280;3207;42.648;23.406;2022-12-18T02:27:35;101612.06;;;3.26;77.71
6349;BME280;3207;42.648;23.406;2022-12-18T02:30:05;101622.50;;;3.20;78.04
6349;BME280;3207;42.648;23.406;2022-12-18T02:32:36;101622.59;;;3.14;78.24
6349;BME280;3207;42.648;23.406;2022-12-18T02:35:07;101619.06;;;3.18;78.59
6349;BME280;3207;42.648;23.406;2022-12-18T02:37:35;101623.38;;;3.19;77.60
6349;BME280;3207;42.648;23.406;2022-12-18T02:40:07;101624.13;;;3.27;78.33
6349;BME280;3207;42.648;23.406;2022-12-18T02:42:36;101627.66;;;3.20;77.96
6349;BME280;3207;42.648;23.406;2022-12-18T02:45:03;101640.78;;;3.08;78.13
6349;BME280;3207;42.648;23.406;2022-12-18T02:47:32;101634.69;;;3.12;78.11
6349;BME280;3207;42.648;23.406;2022-12-18T02:50:07;101637.25;;;3.13;78.10
6349;BME280;3207;42.648;23.406;2022-12-18T02:52:39;101641.63;;;3.08;77.29
6349;BME280;3207;42.648;23.406;2022-12-18T02:55:18;101649.47;;;3.04;78.01
6349;BME280;3207;42.648;23.406;2022-12-18T02:57:54;101652.22;;;2.93;78.72
6349;BME280;3207;42.648;23.406;2022-12-18T03:00:26;101647.19;;;2.82;79.07
6349;BME280;3207;42.648;23.406;2022-12-18T03:02:59;101654.25;;;2.71;79.16
6349;BME280;3207;42.648;23.406;2022-12-18T03:05:31;101649.97;;;2.67;79.00
6349;BME280;3207;42.648;23.406;2022-12-18T03:08:03;101639.78;;;2.60;79.50
6349;BME280;3207;42.648;23.406;2022-12-18T03:10:33;101651.63;;;2.74;79.56
6349;BME280;3207;42.648;23.406;2022-12-18T03:13:04;101659.38;;;2.74;80.15
6349;BME280;3207;42.648;23.406;2022-12-18T03:15:36;101655.16;;;2.67;80.49
6349;BME280;3207;42.648;23.406;2022-12-18T03:18:06;101652.34;;;2.85;80.41
6349;BME280;3207;42.648;23.406;2022-12-18T03:20:36;101660.81;;;2.93;80.22
6349;BME280;3207;42.648;23.406;2022-12-18T03:23:08;101658.97;;;3.02;79.97
6349;BME280;3207;42.648;23.406;2022-12-18T03:25:39;101657.44;;;2.87;80.25
6349;BME280;3207;42.648;23.406;2022-12-18T03:28:12;101655.78;;;2.84;79.93
6349;BME280;3207;42.648;23.406;2022-12-18T03:30:40;101659.91;;;2.96;79.95
6349;BME280;3207;42.648;23.406;2022-12-18T03:33:10;101661.53;;;3.02;79.71
6349;BME280;3207;42.648;23.406;2022-12-18T03:35:40;101663.19;;;3.07;79.37
6349;BME280;3207;42.648;23.406;2022-12-18T03:38:09;101676.16;;;3.03;79.45
6349;BME280;3207;42.648;23.406;2022-12-18T03:40:43;101668.31;;;3.09;79.19
6349;BME280;3207;42.648;23.406;2022-12-18T03:43:19;101669.16;;;3.09;78.30
6349;BME280;3207;42.648;23.406;2022-12-18T03:45:51;101658.97;;;3.02;78.93
6349;BME280;3207;42.648;23.406;2022-12-18T03:48:23;101678.72;;;3.06;78.68
6349;BME280;3207;42.648;23.406;2022-12-18T03:50:56;101679.66;;;2.99;78.68
6349;BME280;3207;42.648;23.406;2022-12-18T03:53:29;101676.22;;;2.98;78.78
6349;BME280;3207;42.648;23.406;2022-12-18T03:56:00;101683.34;;;2.82;79.04
6349;BME280;3207;42.648;23.406;2022-12-18T03:58:32;101684.34;;;2.72;78.54
6349;BME280;3207;42.648;23.406;2022-12-18T04:01:02;101680.13;;;2.65;78.38
6349;BME280;3207;42.648;23.406;2022-12-18T04:03:35;101685.34;;;2.62;78.97
6349;BME280;3207;42.648;23.406;2022-12-18T04:06:03;101690.41;;;2.68;78.78
6349;BME280;3207;42.648;23.406;2022-12-18T04:08:31;101689.53;;;2.71;79.07
6349;BME280;3207;42.648;23.406;2022-12-18T04:11:00;101695.63;;;2.65;78.58
6349;BME280;3207;42.648;23.406;2022-12-18T04:13:29;101700.88;;;2.59;78.72
6349;BME280;3207;42.648;23.406;2022-12-18T04:15:58;101707.78;;;2.55;78.79
6349;BME280;3207;42.648;23.406;2022-12-18T04:18:24;101709.50;;;2.55;77.89
6349;BME280;3207;42.648;23.406;2022-12-18T04:20:51;101719.16;;;2.41;78.71
6349;BME280;3207;42.648;23.406;2022-12-18T04:23:18;101722.50;;;2.50;78.25
6349;BME280;3207;42.648;23.406;2022-12-18T04:25:46;101712.28;;;2.40;78.85
6349;BME280;3207;42.648;23.406;2022-12-18T04:28:13;101698.75;;;2.19;78.95
6349;BME280;3207;42.648;23.406;2022-12-18T04:30:40;101714.06;;;2.33;78.87
6349;BME280;3207;42.648;23.406;2022-12-18T04:33:09;101713.25;;;2.33;79.46
6349;BME280;3207;42.648;23.406;2022-12-18T04:35:36;101699.63;;;2.18;79.31
6349;BME280;3207;42.648;23.406;2022-12-18T04:38:03;101719.31;;;2.27;79.93
6349;BME280;3207;42.648;23.406;2022-12-18T04:40:30;101722.75;;;2.26;79.55
6349;BME280;3207;42.648;23.406;2022-12-18T04:42:56;101723.69;;;2.19;80.27
6349;BME280;3207;42.648;23.406;2022-12-18T04:45:23;101731.50;;;2.13;80.04
6349;BME280;3207;42.648;23.406;2022-12-18T04:47:50;101738.31;;;2.22;79.46
6349;BME280;3207;42.648;23.406;2022-12-18T04:50:18;101742.59;;;2.21;79.46
6349;BME280;3207;42.648;23.406;2022-12-18T04:52:45;101742.75;;;2.06;80.74
6349;BME280;3207;42.648;23.406;2022-12-18T04:55:12;101744.47;;;2.07;80.30
6349;BME280;3207;42.648;23.406;2022-12-18T04:57:38;101746.16;;;2.09;81.00
6349;BME280;3207;42.648;23.406;2022-12-18T05:00:08;101743.59;;;2.09;80.82
6349;BME280;3207;42.648;23.406;2022-12-18T05:02:36;101743.63;;;2.02;80.74
6349;BME280;3207;42.648;23.406;2022-12-18T05:05:03;101759.06;;;2.09;80.76
6349;BME280;3207;42.648;23.406;2022-12-18T05:07:31;101759.06;;;2.08;81.00
6349;BME280;3207;42.648;23.406;2022-12-18T05:09:58;101758.38;;;1.89;81.40
6349;BME280;3207;42.648;23.406;2022-12-18T05:12:25;101735.31;;;1.72;81.09
6349;BME280;3207;42.648;23.406;2022-12-18T05:14:52;101762.69;;;1.87;81.31
6349;BME280;3207;42.648;23.406;2022-12-18T05:17:19;101750.78;;;1.72;81.20
6349;BME280;3207;42.648;23.406;2022-12-18T05:19:46;101767.94;;;1.78;81.19
6349;BME280;3207;42.648;23.406;2022-12-18T05:22:12;101768.03;;;1.63;81.09
6349;BME280;3207;42.648;23.406;2022-12-18T05:24:40;101778.41;;;1.55;81.54
6349;BME280;3207;42.648;23.406;2022-12-18T05:27:07;101778.47;;;1.48;82.36
6349;BME280;3207;42.648;23.406;2022-12-18T05:29:34;101778.44;;;1.51;82.06
6349;BME280;3207;42.648;23.406;2022-12-18T05:32:01;101778.44;;;1.49;82.56
6349;BME280;3207;42.648;23.406;2022-12-18T05:34:28;101781.94;;;1.45;82.27
6349;BME280;3207;42.648;23.406;2022-12-18T05:36:54;101789.59;;;1.53;82.52
6349;BME280;3207;42.648;23.406;2022-12-18T05:39:21;101790.47;;;1.52;82.55
6349;BME280;3207;42.648;23.406;2022-12-18T05:41:49;101799.91;;;1.50;82.92
6349;BME280;3207;42.648;23.406;2022-12-18T05:44:16;101802.47;;;1.57;82.85
6349;BME280;3207;42.648;23.406;2022-12-18T05:46:43;101816.16;;;1.65;82.92
6349;BME280;3207;42.648;23.406;2022-12-18T05:49:10;101817.81;;;1.71;83.13
6349;BME280;3207;42.648;23.406;2022-12-18T05:51:36;101822.13;;;1.69;83.54
6349;BME280;3207;42.648;23.406;2022-12-18T05:54:03;101831.53;;;1.77;83.43
6349;BME280;3207;42.648;23.406;2022-12-18T05:56:30;101834.06;;;1.80;82.74
6349;BME280;3207;42.648;23.406;2022-12-18T05:58:58;101837.47;;;1.84;82.75
6349;BME280;3207;42.648;23.406;2022-12-18T06:01:26;101846.13;;;1.80;83.45
6349;BME280;3207;42.648;23.406;2022-12-18T06:03:53;101844.34;;;1.88;82.48
6349;BME280;3207;42.648;23.406;2022-12-18T06:06:21;101856.31;;;1.95;82.39
6349;BME280;3207;42.648;23.406;2022-12-18T06:08:49;101858.03;;;1.93;82.43
6349;BME280;3207;42.648;23.406;2022-12-18T06:11:18;101864.84;;;2.03;82.54
6349;BME280;3207;42.648;23.406;2022-12-18T06:13:46;101854.50;;;2.06;82.17
6349;BME280;3207;42.648;23.406;2022-12-18T06:16:17;101859.66;;;2.09;81.85
6349;BME280;3207;42.648;23.406;2022-12-18T06:18:44;101869.97;;;2.09;81.26
6349;BME280;3207;42.648;23.406;2022-12-18T06:21:10;101864.81;;;2.06;81.61
6349;BME280;3207;42.648;23.406;2022-12-18T06:23:37;101867.41;;;2.05;81.30
6349;BME280;3207;42.648;23.406;2022-12-18T06:26:05;101867.47;;;2.00;81.02
6349;BME280;3207;42.648;23.406;2022-12-18T06:28:32;101858.03;;;1.96;81.39
6349;BME280;3207;42.648;23.406;2022-12-18T06:30:59;101865.78;;;1.92;81.15
6349;BME280;3207;42.648;23.406;2022-12-18T06:33:27;101857.16;;;1.96;80.67
6349;BME280;3207;42.648;23.406;2022-12-18T06:35:58;101856.31;;;1.92;81.34
6349;BME280;3207;42.648;23.406;2022-12-18T06:38:26;101852.03;;;1.93;81.33
6349;BME280;3207;42.648;23.406;2022-12-18T06:40:52;101864.88;;;1.99;81.18
6349;BME280;3207;42.648;23.406;2022-12-18T06:43:19;101864.91;;;1.97;81.09
6349;BME280;3207;42.648;23.406;2022-12-18T06:45:46;101870.06;;;1.97;81.44
6349;BME280;3207;42.648;23.406;2022-12-18T06:48:18;101876.94;;;1.98;81.49
6349;BME280;3207;42.648;23.406;2022-12-18T06:50:46;101883.88;;;1.90;81.43
6349;BME280;3207;42.648;23.406;2022-12-18T06:53:13;101877.94;;;1.79;82.34
6349;BME280;3207;42.648;23.406;2022-12-18T06:55:40;101874.47;;;1.80;82.13
6349;BME280;3207;42.648;23.406;2022-12-18T06:58:07;101889.97;;;1.78;82.27
6349;BME280;3207;42.648;23.406;2022-12-18T07:00:33;101885.59;;;1.88;81.74
6349;BME280;3207;42.648;23.406;2022-12-18T07:03:00;101887.22;;;2.01;82.04
6349;BME280;3207;42.648;23.406;2022-12-18T07:05:27;101894.91;;;2.10;82.26
6349;BME280;3207;42.648;23.406;2022-12-18T07:07:55;101893.19;;;2.08;81.33
6349;BME280;3207;42.648;23.406;2022-12-18T07:10:23;101890.56;;;2.12;80.96
6349;BME280;3207;42.648;23.406;2022-12-18T07:12:50;101904.13;;;2.37;81.01
6349;BME280;3207;42.648;23.406;2022-12-18T07:15:17;101903.84;;;2.66;79.33
6349;BME280;3207;42.648;23.406;2022-12-18T07:17:44;101901.25;;;2.68;78.30
6349;BME280;3207;42.648;23.406;2022-12-18T07:20:11;101907.34;;;2.62;78.41
6349;BME280;3207;42.648;23.406;2022-12-18T07:22:38;101910.69;;;2.72;78.01
6349;BME280;3207;42.648;23.406;2022-12-18T07:25:07;101912.34;;;2.77;77.15
6349;BME280;3207;42.648;23.406;2022-12-18T07:27:34;101905.41;;;2.85;77.40
6349;BME280;3207;42.648;23.406;2022-12-18T07:30:00;101917.13;;;3.17;76.80
6349;BME280;3207;42.648;23.406;2022-12-18T07:32:27;101918.81;;;3.18;76.01
6349;BME280;3207;42.648;23.406;2022-12-18T07:34:54;101911.00;;;3.22;75.27
6349;BME280;3207;42.648;23.406;2022-12-18T07:37:21;101937.38;;;3.50;74.74
6349;BME280;3207;42.648;23.406;2022-12-18T07:39:48;101932.97;;;3.58;74.32
6349;BME280;3207;42.648;23.406;2022-12-18T07:42:16;101945.47;;;3.92;74.22
6349;BME280;3207;42.648;23.406;2022-12-18T07:44:58;101949.13;;;4.34;72.64
6349;BME280;3207;42.648;23.406;2022-12-18T07:47:26;101938.47;;;4.52;69.71
6349;BME280;3207;42.648;23.406;2022-12-18T07:49:53;101943.28;;;4.75;68.76
6349;BME280;3207;42.648;23.406;2022-12-18T07:52:20;101947.66;;;4.70;68.26
6349;BME280;3207;42.648;23.406;2022-12-18T07:54:47;101936.50;;;4.66;68.70
6349;BME280;3207;42.648;23.406;2022-12-18T07:57:17;101927.59;;;4.83;68.78
6349;BME280;3207;42.648;23.406;2022-12-18T07:59:44;101954.41;;;5.69;69.24
6349;BME280;3207;42.648;23.406;2022-12-18T08:41:20;101999.81;;;22.98;nan
6349;BME280;3207;42.648;23.406;2022-12-18T08:43:47;102004.59;;;22.85;nan
6349;BME280;3207;42.648;23.406;2022-12-18T08:46:34;102008.63;;;22.31;nan
6349;BME280;3207;42.648;23.406;2022-12-18T08:49:02;102003.69;;;21.67;nan
6349;BME280;3207;42.648;23.406;2022-12-18T08:51:29;102008.66;;;20.89;nan
6349;BME280;3207;42.648;23.406;2022-12-18T08:53:56;101978.56;;;20.67;nan
6349;BME280;3207;42.648;23.406;2022-12-18T08:56:23;102012.31;;;21.50;nan
6349;BME280;3207;42.648;23.406;2022-12-18T08:58:52;102008.78;;;22.39;nan
6349;BME280;3207;42.648;23.406;2022-12-18T09:01:19;102017.56;;;23.26;nan
6349;BME280;3207;42.648;23.406;2022-12-18T09:03:48;102022.22;;;23.98;nan
6349;BME280;3207;42.648;23.406;2022-12-18T09:06:15;102030.66;;;24.66;nan
6349;BME280;3207;42.648;23.406;2022-12-18T09:08:43;102026.44;;;25.25;nan
6349;BME280;3207;42.648;23.406;2022-12-18T09:11:14;102031.72;;;25.69;nan
6349;BME280;3207;42.648;23.406;2022-12-18T09:13:41;102042.44;;;26.11;nan
6349;BME280;3207;42.648;23.406;2022-12-18T09:16:08;102040.34;;;26.31;nan
6349;BME280;3207;42.648;23.406;2022-12-18T09:18:35;102042.41;;;26.53;nan
6349;BME280;3207;42.648;23.406;2022-12-18T09:21:09;102040.41;;;27.04;nan
6349;BME280;3207;42.648;23.406;2022-12-18T09:23:36;102042.81;;;27.70;nan
6349;BME280;3207;42.648;23.406;2022-12-18T09:26:03;102046.47;;;28.47;nan
6349;BME280;3207;42.648;23.406;2022-12-18T09:28:30;102031.38;;;29.06;nan
6349;BME280;3207;42.648;23.406;2022-12-18T09:30:57;102033.53;;;29.26;nan
6349;BME280;3207;42.648;23.406;2022-12-18T09:33:24;102036.44;;;29.39;nan
6349;BME280;3207;42.648;23.406;2022-12-18T09:35:51;102027.50;;;29.24;nan
6349;BME280;3207;42.648;23.406;2022-12-18T09:38:19;102028.84;;;28.90;nan
6349;BME280;3207;42.648;23.406;2022-12-18T09:40:49;102025.13;;;28.15;nan
6349;BME280;3207;42.648;23.406;2022-12-18T09:43:20;102019.47;;;28.01;nan
6349;BME280;3207;42.648;23.406;2022-12-18T09:45:52;102012.66;;;27.91;nan
6349;BME280;3207;42.648;23.406;2022-12-18T09:48:23;102014.66;;;27.97;nan
6349;BME280;3207;42.648;23.406;2022-12-18T09:50:57;102023.97;;;28.17;nan
6349;BME280;3207;42.648;23.406;2022-12-18T09:53:30;102018.91;;;28.68;nan
6349;BME280;3207;42.648;23.406;2022-12-18T09:56:00;102019.91;;;29.42;nan
6349;BME280;3207;42.648;23.406;2022-12-18T09:58:31;102016.31;;;30.00;nan
6349;BME280;3207;42.648;23.406;2022-12-18T10:00:59;102018.47;;;30.05;nan
6349;BME280;3207;42.648;23.406;2022-12-18T10:03:26;102017.16;;;30.01;nan
6349;BME280;3207;42.648;23.406;2022-12-18T10:06:02;102017.31;;;30.14;nan
6349;BME280;3207;42.648;23.406;2022-12-18T10:08:38;102017.06;;;30.51;nan
6349;BME280;3207;42.648;23.406;2022-12-18T10:11:34;102021.03;;;30.13;nan
6349;BME280;3207;42.648;23.406;2022-12-18T10:14:10;102017.84;;;29.73;nan
6349;BME280;3207;42.648;23.406;2022-12-18T10:16:47;102009.56;;;29.45;nan
6349;BME280;3207;42.648;23.406;2022-12-18T10:19:24;102003.81;;;29.48;nan
6349;BME280;3207;42.648;23.406;2022-12-18T10:21:59;102011.44;;;29.74;nan
6349;BME280;3207;42.648;23.406;2022-12-18T10:24:35;102014.09;;;30.04;nan
6349;BME280;3207;42.648;23.406;2022-12-18T10:27:12;102016.50;;;29.99;nan
6349;BME280;3207;42.648;23.406;2022-12-18T10:29:41;102011.41;;;30.25;nan
6349;BME280;3207;42.648;23.406;2022-12-18T10:32:14;102008.22;;;30.79;nan
6349;BME280;3207;42.648;23.406;2022-12-18T10:34:45;102009.19;;;31.27;nan
6349;BME280;3207;42.648;23.406;2022-12-18T10:37:16;102000.97;;;30.86;nan
6349;BME280;3207;42.648;23.406;2022-12-18T10:39:46;101999.09;;;30.37;nan
6349;BME280;3207;42.648;23.406;2022-12-18T10:42:17;101995.16;;;30.18;nan
6349;BME280;3207;42.648;23.406;2022-12-18T10:44:44;101992.31;;;29.91;nan
6349;BME280;3207;42.648;23.406;2022-12-18T10:47:14;101985.22;;;29.39;nan
6349;BME280;3207;42.648;23.406;2022-12-18T10:49:47;101980.56;;;29.47;nan
6349;BME280;3207;42.648;23.406;2022-12-18T10:52:18;101975.53;;;29.59;nan
6349;BME280;3207;42.648;23.406;2022-12-18T10:54:52;101979.75;;;29.47;nan
6349;BME280;3207;42.648;23.406;2022-12-18T10:57:32;101986.44;;;29.66;nan
6349;BME280;3207;42.648;23.406;2022-12-18T11:00:18;101992.25;;;29.69;nan
6349;BME280;3207;42.648;23.406;2022-12-18T11:02:46;101972.00;;;29.14;nan
6349;BME280;3207;42.648;23.406;2022-12-18T11:05:24;101970.88;;;29.09;nan
6349;BME280;3207;42.648;23.406;2022-12-18T11:07:52;101968.34;;;28.78;nan
6349;BME280;3207;42.648;23.406;2022-12-18T11:10:22;101981.38;;;28.89;nan
6349;BME280;3207;42.648;23.406;2022-12-18T11:12:50;101976.00;;;29.19;nan
6349;BME280;3207;42.648;23.406;2022-12-18T11:15:19;101975.22;;;29.83;nan
6349;BME280;3207;42.648;23.406;2022-12-18T11:17:48;101972.91;;;29.80;nan
6349;BME280;3207;42.648;23.406;2022-12-18T11:20:29;101959.41;;;29.80;nan
6349;BME280;3207;42.648;23.406;2022-12-18T11:22:58;101967.44;;;30.10;nan
6349;BME280;3207;42.648;23.406;2022-12-18T11:25:30;101963.00;;;30.45;nan
6349;BME280;3207;42.648;23.406;2022-12-18T11:28:00;101954.53;;;30.48;nan
6349;BME280;3207;42.648;23.406;2022-12-18T11:30:29;101955.91;;;30.59;nan
6349;BME280;3207;42.648;23.406;2022-12-18T11:33:00;101954.47;;;30.20;nan
6349;BME280;3207;42.648;23.406;2022-12-18T11:35:42;101957.28;;;30.12;nan
6349;BME280;3207;42.648;23.406;2022-12-18T11:38:18;101951.53;;;30.15;nan
6349;BME280;3207;42.648;23.406;2022-12-18T11:40:53;101946.66;;;29.53;nan
6349;BME280;3207;42.648;23.406;2022-12-18T11:43:26;101945.31;;;28.53;nan
6349;BME280;3207;42.648;23.406;2022-12-18T11:45:58;101941.84;;;27.76;nan
6349;BME280;3207;42.648;23.406;2022-12-18T11:48:28;101949.94;;;27.20;nan
6349;BME280;3207;42.648;23.406;2022-12-18T11:50:59;101949.16;;;26.55;nan
6349;BME280;3207;42.648;23.406;2022-12-18T11:53:27;101948.06;;;25.91;nan
6349;BME280;3207;42.648;23.406;2022-12-18T11:56:04;101953.38;;;25.07;nan
6349;BME280;3207;42.648;23.406;2022-12-18T11:58:42;101953.03;;;23.95;nan
6349;BME280;3207;42.648;23.406;2022-12-18T12:01:18;101943.81;;;22.59;nan
6349;BME280;3207;42.648;23.406;2022-12-18T12:04:08;101931.22;;;21.24;nan
6349;BME280;3207;42.648;23.406;2022-12-18T12:06:46;101933.47;;;20.13;nan
6349;BME280;3207;42.648;23.406;2022-12-18T12:09:21;101931.91;;;19.34;nan
6349;BME280;3207;42.648;23.406;2022-12-18T12:12:01;101925.09;;;18.50;nan
6349;BME280;3207;42.648;23.406;2022-12-18T12:14:43;101918.38;;;17.49;nan
6349;BME280;3207;42.648;23.406;2022-12-18T12:17:20;101916.53;;;16.75;nan
6349;BME280;3207;42.648;23.406;2022-12-18T12:19:54;101909.97;;;16.29;nan
6349;BME280;3207;42.648;23.406;2022-12-18T12:22:29;101907.88;;;15.80;nan
6349;BME280;3207;42.648;23.406;2022-12-18T12:25:13;101908.31;;;15.31;nan
6349;BME280;3207;42.648;23.406;2022-12-18T12:27:51;101905.69;;;15.03;nan
6349;BME280;3207;42.648;23.406;2022-12-18T12:30:26;101891.19;;;14.96;nan
6349;BME280;3207;42.648;23.406;2022-12-18T12:33:08;101898.72;;;15.02;nan
6349;BME280;3207;42.648;23.406;2022-12-18T12:35:46;101897.78;;;15.03;nan
6349;BME280;3207;42.648;23.406;2022-12-18T12:38:22;101894.41;;;15.01;nan
6349;BME280;3207;42.648;23.406;2022-12-18T12:40:54;101886.34;;;14.60;nan
6349;BME280;3207;42.648;23.406;2022-12-18T12:43:31;101884.53;;;14.46;nan
6349;BME280;3207;42.648;23.406;2022-12-18T12:46:04;101882.50;;;14.36;nan
6349;BME280;3207;42.648;23.406;2022-12-18T12:48:36;101883.47;;;14.19;nan
6349;BME280;3207;42.648;23.406;2022-12-18T12:51:10;101877.00;;;13.95;nan
6349;BME280;3207;42.648;23.406;2022-12-18T12:53:39;101869.72;;;13.84;nan
6349;BME280;3207;42.648;23.406;2022-12-18T12:56:08;101872.53;;;13.65;nan
6349;BME280;3207;42.648;23.406;2022-12-18T12:58:45;101880.56;;;13.62;nan
6349;BME280;3207;42.648;23.406;2022-12-18T13:01:20;101882.25;;;13.47;nan
6349;BME280;3207;42.648;23.406;2022-12-18T13:03:56;101881.81;;;13.24;nan
6349;BME280;3207;42.648;23.406;2022-12-18T13:06:40;101890.81;;;13.02;nan
6349;BME280;3207;42.648;23.406;2022-12-18T13:09:10;101886.88;;;12.94;nan
6349;BME280;3207;42.648;23.406;2022-12-18T13:11:39;101889.59;;;12.92;nan
6349;BME280;3207;42.648;23.406;2022-12-18T13:14:28;101890.22;;;12.80;nan
6349;BME280;3207;42.648;23.406;2022-12-18T13:35:58;101911.00;;;11.59;37.67
6349;BME280;3207;42.648;23.406;2022-12-18T13:38:33;101904.00;;;11.41;37.14
6349;BME280;3207;42.648;23.406;2022-12-18T13:41:01;101901.44;;;11.21;38.07
6349;BME280;3207;42.648;23.406;2022-12-18T13:43:30;101908.06;;;11.09;37.55
6349;BME280;3207;42.648;23.406;2022-12-18T13:46:01;101896.09;;;10.83;38.66
6349;BME280;3207;42.648;23.406;2022-12-18T13:48:32;101904.22;;;10.77;39.36
6349;BME280;3207;42.648;23.406;2022-12-18T13:51:03;101901.84;;;10.51;39.76
6349;BME280;3207;42.648;23.406;2022-12-18T13:53:34;101905.97;;;10.36;40.57
6349;BME280;3207;42.648;23.406;2022-12-18T13:56:03;101901.25;;;10.24;40.85
6349;BME280;3207;42.648;23.406;2022-12-18T13:58:30;101901.13;;;10.05;40.77
6349;BME280;3207;42.648;23.406;2022-12-18T14:00:57;101900.81;;;9.91;41.31
6349;BME280;3207;42.648;23.406;2022-12-18T14:03:27;101910.94;;;9.77;42.41
6349;BME280;3207;42.648;23.406;2022-12-18T14:06:02;101910.28;;;9.72;42.78
6349;BME280;3207;42.648;23.406;2022-12-18T14:08:36;101913.47;;;9.78;43.78
6349;BME280;3207;42.648;23.406;2022-12-18T14:11:05;101914.13;;;9.85;43.29
6349;BME280;3207;42.648;23.406;2022-12-18T14:13:36;101937.31;;;9.93;43.11
6349;BME280;3207;42.648;23.406;2022-12-18T14:16:05;101938.34;;;9.88;42.96
6349;BME280;3207;42.648;23.406;2022-12-18T14:18:39;101939.66;;;9.77;42.46
6349;BME280;3207;42.648;23.406;2022-12-18T14:21:18;101941.06;;;9.64;42.95
6349;BME280;3207;42.648;23.406;2022-12-18T14:23:45;101948.66;;;9.46;43.59
6349;BME280;3207;42.648;23.406;2022-12-18T14:26:22;101943.66;;;9.40;43.50
6349;BME280;3207;42.648;23.406;2022-12-18T14:28:50;101942.25;;;9.32;43.28